sensor_id;sensor_type;location;lat;lon;timestamp;temperature;humidity
71879;DHT22;59755;43.834;4.364;2023-06-10T00:01:29;20.80;93.30
71879;DHT22;59755;43.834;4.364;2023-06-10T00:03:55;20.80;93.50
71879;DHT22;59755;43.834;4.364;2023-06-10T00:06:21;20.80;93.70
71879;DHT22;59755;43.834;4.364;2023-06-10T00:08:50;20.80;93.50
71879;DHT22;59755;43.834;4.364;2023-06-10T00:11:15;20.80;93.30
71879;DHT22;59755;43.834;4.364;2023-06-10T00:13:41;20.80;93.40
71879;DHT22;59755;43.834;4.364;2023-06-10T00:16:06;20.80;93.30
71879;DHT22;59755;43.834;4.364;2023-06-10T00:18:32;20.80;93.50
71879;DHT22;59755;43.834;4.364;2023-06-10T00:20:58;20.80;93.40
71879;DHT22;59755;43.834;4.364;2023-06-10T00:23:29;20.80;93.70
71879;DHT22;59755;43.834;4.364;2023-06-10T00:25:59;20.80;93.70
71879;DHT22;59755;43.834;4.364;2023-06-10T00:28:25;20.80;93.80
71879;DHT22;59755;43.834;4.364;2023-06-10T00:30:51;20.80;93.90
71879;DHT22;59755;43.834;4.364;2023-06-10T00:33:16;20.80;93.90
71879;DHT22;59755;43.834;4.364;2023-06-10T00:35:42;20.80;93.90
71879;DHT22;59755;43.834;4.364;2023-06-10T00:38:08;20.80;93.70
71879;DHT22;59755;43.834;4.364;2023-06-10T00:40:33;20.80;93.80
71879;DHT22;59755;43.834;4.364;2023-06-10T00:43:04;20.80;93.80
71879;DHT22;59755;43.834;4.364;2023-06-10T00:45:29;20.80;93.80
71879;DHT22;59755;43.834;4.364;2023-06-10T00:47:55;20.80;93.60
71879;DHT22;59755;43.834;4.364;2023-06-10T00:50:21;20.80;93.60
71879;DHT22;59755;43.834;4.364;2023-06-10T00:52:47;20.80;93.70
71879;DHT22;59755;43.834;4.364;2023-06-10T00:55:14;20.80;93.70
71879;DHT22;59755;43.834;4.364;2023-06-10T00:57:41;20.80;94.30
71879;DHT22;59755;43.834;4.364;2023-06-10T01:00:10;20.70;94.30
71879;DHT22;59755;43.834;4.364;2023-06-10T01:02:36;20.70;94.30
71879;DHT22;59755;43.834;4.364;2023-06-10T01:05:01;20.80;94.50
71879;DHT22;59755;43.834;4.364;2023-06-10T01:10:02;20.80;94.20
71879;DHT22;59755;43.834;4.364;2023-06-10T01:15:32;20.80;94.00
71879;DHT22;59755;43.834;4.364;2023-06-10T01:18:05;20.80;94.10
71879;DHT22;59755;43.834;4.364;2023-06-10T01:20:34;20.80;94.20
71879;DHT22;59755;43.834;4.364;2023-06-10T01:23:08;20.80;94.20
71879;DHT22;59755;43.834;4.364;2023-06-10T01:25:36;20.80;94.10
71879;DHT22;59755;43.834;4.364;2023-06-10T01:30:30;20.80;93.70
71879;DHT22;59755;43.834;4.364;2023-06-10T01:32:59;20.80;93.70
71879;DHT22;59755;43.834;4.364;2023-06-10T01:35:25;20.70;93.40
71879;DHT22;59755;43.834;4.364;2023-06-10T01:37:52;20.70;93.70
71879;DHT22;59755;43.834;4.364;2023-06-10T01:40:18;20.80;93.80
71879;DHT22;59755;43.834;4.364;2023-06-10T01:42:44;20.80;94.10
71879;DHT22;59755;43.834;4.364;2023-06-10T01:45:10;20.80;93.90
71879;DHT22;59755;43.834;4.364;2023-06-10T01:47:35;20.80;94.00
71879;DHT22;59755;43.834;4.364;2023-06-10T01:50:01;20.80;94.10
71879;DHT22;59755;43.834;4.364;2023-06-10T01:52:26;20.80;94.00
71879;DHT22;59755;43.834;4.364;2023-06-10T01:54:53;20.80;94.00
71879;DHT22;59755;43.834;4.364;2023-06-10T01:57:18;20.70;94.00
71879;DHT22;59755;43.834;4.364;2023-06-10T01:59:44;20.70;93.80
71879;DHT22;59755;43.834;4.364;2023-06-10T02:02:11;20.70;93.70
71879;DHT22;59755;43.834;4.364;2023-06-10T02:04:37;20.70;93.80
71879;DHT22;59755;43.834;4.364;2023-06-10T02:07:02;20.70;93.90
71879;DHT22;59755;43.834;4.364;2023-06-10T02:09:32;20.80;93.80
71879;DHT22;59755;43.834;4.364;2023-06-10T02:12:00;20.80;93.90
71879;DHT22;59755;43.834;4.364;2023-06-10T02:14:26;20.80;94.00
71879;DHT22;59755;43.834;4.364;2023-06-10T02:16:51;20.80;93.90
71879;DHT22;59755;43.834;4.364;2023-06-10T02:19:21;20.80;93.90
71879;DHT22;59755;43.834;4.364;2023-06-10T02:21:47;20.80;94.30
71879;DHT22;59755;43.834;4.364;2023-06-10T02:24:13;20.80;94.30
71879;DHT22;59755;43.834;4.364;2023-06-10T02:26:39;20.80;94.30
71879;DHT22;59755;43.834;4.364;2023-06-10T02:29:05;20.80;94.60
71879;DHT22;59755;43.834;4.364;2023-06-10T02:31:31;20.80;94.80
71879;DHT22;59755;43.834;4.364;2023-06-10T02:33:57;20.80;95.10
71879;DHT22;59755;43.834;4.364;2023-06-10T02:36:22;20.80;95.00
71879;DHT22;59755;43.834;4.364;2023-06-10T02:38:49;20.80;94.90
71879;DHT22;59755;43.834;4.364;2023-06-10T02:41:15;20.80;94.60
71879;DHT22;59755;43.834;4.364;2023-06-10T02:43:40;20.80;94.40
71879;DHT22;59755;43.834;4.364;2023-06-10T02:46:06;20.70;93.40
71879;DHT22;59755;43.834;4.364;2023-06-10T02:48:38;20.60;91.10
71879;DHT22;59755;43.834;4.364;2023-06-10T02:51:05;20.40;88.90
71879;DHT22;59755;43.834;4.364;2023-06-10T02:53:31;20.30;88.90
71879;DHT22;59755;43.834;4.364;2023-06-10T02:55:56;20.20;88.00
71879;DHT22;59755;43.834;4.364;2023-06-10T02:58:22;20.20;88.60
71879;DHT22;59755;43.834;4.364;2023-06-10T03:00:47;20.00;86.90
71879;DHT22;59755;43.834;4.364;2023-06-10T03:03:14;19.90;86.00
71879;DHT22;59755;43.834;4.364;2023-06-10T03:05:39;19.70;85.90
71879;DHT22;59755;43.834;4.364;2023-06-10T03:08:05;19.70;86.50
71879;DHT22;59755;43.834;4.364;2023-06-10T03:10:31;19.70;85.20
71879;DHT22;59755;43.834;4.364;2023-06-10T03:12:58;19.80;85.20
71879;DHT22;59755;43.834;4.364;2023-06-10T03:15:24;19.80;85.50
71879;DHT22;59755;43.834;4.364;2023-06-10T03:17:49;19.80;85.50
71879;DHT22;59755;43.834;4.364;2023-06-10T03:20:15;19.70;85.60
71879;DHT22;59755;43.834;4.364;2023-06-10T03:22:42;19.70;85.00
71879;DHT22;59755;43.834;4.364;2023-06-10T03:25:08;19.70;85.60
71879;DHT22;59755;43.834;4.364;2023-06-10T03:27:42;19.60;86.20
71879;DHT22;59755;43.834;4.364;2023-06-10T03:30:07;19.50;85.30
71879;DHT22;59755;43.834;4.364;2023-06-10T03:32:34;19.50;86.00
71879;DHT22;59755;43.834;4.364;2023-06-10T03:35:00;19.50;86.20
71879;DHT22;59755;43.834;4.364;2023-06-10T03:37:26;19.40;85.70
71879;DHT22;59755;43.834;4.364;2023-06-10T03:39:52;19.50;86.30
71879;DHT22;59755;43.834;4.364;2023-06-10T03:42:17;19.40;85.80
71879;DHT22;59755;43.834;4.364;2023-06-10T03:44:43;19.40;86.10
71879;DHT22;59755;43.834;4.364;2023-06-10T03:47:08;19.40;86.80
71879;DHT22;59755;43.834;4.364;2023-06-10T03:49:34;19.30;87.00
71879;DHT22;59755;43.834;4.364;2023-06-10T03:52:01;19.30;87.10
71879;DHT22;59755;43.834;4.364;2023-06-10T03:54:27;19.30;87.80
71879;DHT22;59755;43.834;4.364;2023-06-10T03:56:53;19.30;88.20
71879;DHT22;59755;43.834;4.364;2023-06-10T03:59:18;19.20;87.60
71879;DHT22;59755;43.834;4.364;2023-06-10T04:01:44;19.20;88.50
71879;DHT22;59755;43.834;4.364;2023-06-10T04:04:13;19.20;88.50
71879;DHT22;59755;43.834;4.364;2023-06-10T04:06:39;19.20;89.10
71879;DHT22;59755;43.834;4.364;2023-06-10T04:09:05;19.10;89.20
71879;DHT22;59755;43.834;4.364;2023-06-10T04:11:30;19.20;88.70
71879;DHT22;59755;43.834;4.364;2023-06-10T04:13:57;19.20;88.70
71879;DHT22;59755;43.834;4.364;2023-06-10T04:16:22;19.20;88.60
71879;DHT22;59755;43.834;4.364;2023-06-10T04:18:48;19.20;88.70
71879;DHT22;59755;43.834;4.364;2023-06-10T04:21:14;19.20;89.70
71879;DHT22;59755;43.834;4.364;2023-06-10T04:23:39;19.10;90.40
71879;DHT22;59755;43.834;4.364;2023-06-10T04:26:05;19.00;90.30
71879;DHT22;59755;43.834;4.364;2023-06-10T04:28:31;19.00;90.60
71879;DHT22;59755;43.834;4.364;2023-06-10T04:30:57;19.00;90.20
71879;DHT22;59755;43.834;4.364;2023-06-10T04:33:23;19.00;90.50
71879;DHT22;59755;43.834;4.364;2023-06-10T04:35:49;19.00;90.20
71879;DHT22;59755;43.834;4.364;2023-06-10T04:38:15;19.00;90.40
71879;DHT22;59755;43.834;4.364;2023-06-10T04:40:41;19.00;90.50
71879;DHT22;59755;43.834;4.364;2023-06-10T04:43:06;19.10;90.00
71879;DHT22;59755;43.834;4.364;2023-06-10T04:45:32;19.10;89.90
71879;DHT22;59755;43.834;4.364;2023-06-10T04:47:58;19.10;90.20
71879;DHT22;59755;43.834;4.364;2023-06-10T04:50:23;19.10;90.70
71879;DHT22;59755;43.834;4.364;2023-06-10T04:52:49;19.10;90.10
71879;DHT22;59755;43.834;4.364;2023-06-10T04:55:15;19.10;88.80
71879;DHT22;59755;43.834;4.364;2023-06-10T04:57:41;19.00;88.00
71879;DHT22;59755;43.834;4.364;2023-06-10T05:00:06;19.10;88.40
71879;DHT22;59755;43.834;4.364;2023-06-10T05:02:33;19.00;88.90
71879;DHT22;59755;43.834;4.364;2023-06-10T05:04:59;19.00;88.60
71879;DHT22;59755;43.834;4.364;2023-06-10T05:07:24;19.00;88.50
71879;DHT22;59755;43.834;4.364;2023-06-10T05:09:50;18.90;88.20
71879;DHT22;59755;43.834;4.364;2023-06-10T05:12:16;18.90;88.20
71879;DHT22;59755;43.834;4.364;2023-06-10T05:14:41;19.00;87.90
71879;DHT22;59755;43.834;4.364;2023-06-10T05:17:07;18.90;87.60
71879;DHT22;59755;43.834;4.364;2023-06-10T05:19:32;18.90;88.60
71879;DHT22;59755;43.834;4.364;2023-06-10T05:21:58;18.90;87.90
71879;DHT22;59755;43.834;4.364;2023-06-10T05:24:24;18.90;88.40
71879;DHT22;59755;43.834;4.364;2023-06-10T05:26:49;18.90;87.90
71879;DHT22;59755;43.834;4.364;2023-06-10T05:29:15;18.90;88.10
71879;DHT22;59755;43.834;4.364;2023-06-10T05:31:41;18.90;87.70
71879;DHT22;59755;43.834;4.364;2023-06-10T05:34:06;19.00;88.20
71879;DHT22;59755;43.834;4.364;2023-06-10T05:36:32;19.00;88.60
71879;DHT22;59755;43.834;4.364;2023-06-10T05:38:58;19.10;88.70
71879;DHT22;59755;43.834;4.364;2023-06-10T05:41:23;19.10;88.50
71879;DHT22;59755;43.834;4.364;2023-06-10T05:43:49;19.20;88.40
71879;DHT22;59755;43.834;4.364;2023-06-10T05:46:14;19.30;88.80
71879;DHT22;59755;43.834;4.364;2023-06-10T05:48:40;19.30;89.40
71879;DHT22;59755;43.834;4.364;2023-06-10T05:51:06;19.30;88.60
71879;DHT22;59755;43.834;4.364;2023-06-10T05:53:31;19.40;88.40
71879;DHT22;59755;43.834;4.364;2023-06-10T05:55:57;19.40;88.80
71879;DHT22;59755;43.834;4.364;2023-06-10T05:58:23;19.50;88.40
71879;DHT22;59755;43.834;4.364;2023-06-10T06:00:49;19.50;89.10
71879;DHT22;59755;43.834;4.364;2023-06-10T06:03:15;19.60;89.30
71879;DHT22;59755;43.834;4.364;2023-06-10T06:05:40;19.60;89.30
71879;DHT22;59755;43.834;4.364;2023-06-10T06:08:07;19.60;88.50
71879;DHT22;59755;43.834;4.364;2023-06-10T06:10:32;19.70;88.30
71879;DHT22;59755;43.834;4.364;2023-06-10T06:12:58;19.70;88.10
71879;DHT22;59755;43.834;4.364;2023-06-10T06:15:24;19.70;87.70
71879;DHT22;59755;43.834;4.364;2023-06-10T06:17:49;19.70;87.40
71879;DHT22;59755;43.834;4.364;2023-06-10T06:20:18;19.80;87.40
71879;DHT22;59755;43.834;4.364;2023-06-10T06:22:44;19.90;87.40
71879;DHT22;59755;43.834;4.364;2023-06-10T06:25:09;19.90;87.20
71879;DHT22;59755;43.834;4.364;2023-06-10T06:27:35;19.90;87.20
71879;DHT22;59755;43.834;4.364;2023-06-10T06:30:00;19.90;87.50
71879;DHT22;59755;43.834;4.364;2023-06-10T06:32:26;20.00;88.00
71879;DHT22;59755;43.834;4.364;2023-06-10T06:34:53;20.00;87.20
71879;DHT22;59755;43.834;4.364;2023-06-10T06:37:25;20.00;87.50
71879;DHT22;59755;43.834;4.364;2023-06-10T06:39:51;20.10;87.50
71879;DHT22;59755;43.834;4.364;2023-06-10T06:42:17;20.10;87.90
71879;DHT22;59755;43.834;4.364;2023-06-10T06:44:43;20.20;87.50
71879;DHT22;59755;43.834;4.364;2023-06-10T06:47:09;20.20;87.10
71879;DHT22;59755;43.834;4.364;2023-06-10T06:49:34;20.30;85.90
71879;DHT22;59755;43.834;4.364;2023-06-10T06:52:01;20.30;86.70
71879;DHT22;59755;43.834;4.364;2023-06-10T06:54:26;20.40;85.50
71879;DHT22;59755;43.834;4.364;2023-06-10T06:56:52;20.40;84.90
71879;DHT22;59755;43.834;4.364;2023-06-10T06:59:17;20.50;83.90
71879;DHT22;59755;43.834;4.364;2023-06-10T07:01:44;20.50;84.00
71879;DHT22;59755;43.834;4.364;2023-06-10T07:04:10;20.60;84.60
71879;DHT22;59755;43.834;4.364;2023-06-10T07:06:36;20.70;85.10
71879;DHT22;59755;43.834;4.364;2023-06-10T07:09:01;20.70;83.70
71879;DHT22;59755;43.834;4.364;2023-06-10T07:11:27;20.80;82.80
71879;DHT22;59755;43.834;4.364;2023-06-10T07:13:52;20.90;83.00
71879;DHT22;59755;43.834;4.364;2023-06-10T07:16:18;21.00;82.80
71879;DHT22;59755;43.834;4.364;2023-06-10T07:18:46;21.00;83.20
71879;DHT22;59755;43.834;4.364;2023-06-10T07:21:11;21.10;83.10
71879;DHT22;59755;43.834;4.364;2023-06-10T07:23:37;21.00;83.00
71879;DHT22;59755;43.834;4.364;2023-06-10T07:26:02;21.10;83.10
71879;DHT22;59755;43.834;4.364;2023-06-10T07:28:28;21.10;83.10
71879;DHT22;59755;43.834;4.364;2023-06-10T07:30:54;21.10;82.50
71879;DHT22;59755;43.834;4.364;2023-06-10T07:33:19;21.20;83.60
71879;DHT22;59755;43.834;4.364;2023-06-10T07:35:45;21.20;82.20
71879;DHT22;59755;43.834;4.364;2023-06-10T07:38:10;21.30;82.00
71879;DHT22;59755;43.834;4.364;2023-06-10T07:40:36;21.40;80.70
71879;DHT22;59755;43.834;4.364;2023-06-10T07:43:02;21.50;82.00
71879;DHT22;59755;43.834;4.364;2023-06-10T07:45:27;21.50;81.20
71879;DHT22;59755;43.834;4.364;2023-06-10T07:47:53;21.70;81.00
71879;DHT22;59755;43.834;4.364;2023-06-10T07:50:19;21.80;80.30
71879;DHT22;59755;43.834;4.364;2023-06-10T07:52:44;21.90;80.60
71879;DHT22;59755;43.834;4.364;2023-06-10T07:55:10;22.10;80.60
71879;DHT22;59755;43.834;4.364;2023-06-10T07:57:37;22.20;79.90
71879;DHT22;59755;43.834;4.364;2023-06-10T08:00:04;22.30;79.30
71879;DHT22;59755;43.834;4.364;2023-06-10T08:02:30;22.20;78.10
71879;DHT22;59755;43.834;4.364;2023-06-10T08:04:56;22.20;77.40
71879;DHT22;59755;43.834;4.364;2023-06-10T08:07:21;22.10;78.10
71879;DHT22;59755;43.834;4.364;2023-06-10T08:09:47;22.10;79.00
71879;DHT22;59755;43.834;4.364;2023-06-10T08:12:13;22.30;79.10
71879;DHT22;59755;43.834;4.364;2023-06-10T08:14:38;22.40;77.50
71879;DHT22;59755;43.834;4.364;2023-06-10T08:17:04;22.40;77.50
71879;DHT22;59755;43.834;4.364;2023-06-10T08:19:31;22.40;76.00
71879;DHT22;59755;43.834;4.364;2023-06-10T08:21:56;22.30;75.20
71879;DHT22;59755;43.834;4.364;2023-06-10T08:24:22;22.20;75.60
71879;DHT22;59755;43.834;4.364;2023-06-10T08:26:47;22.20;76.70
71879;DHT22;59755;43.834;4.364;2023-06-10T08:29:13;22.20;76.40
71879;DHT22;59755;43.834;4.364;2023-06-10T08:31:42;22.30;76.90
71879;DHT22;59755;43.834;4.364;2023-06-10T08:34:08;22.30;76.30
71879;DHT22;59755;43.834;4.364;2023-06-10T08:36:34;22.40;76.40
71879;DHT22;59755;43.834;4.364;2023-06-10T08:39:01;22.50;74.70
71879;DHT22;59755;43.834;4.364;2023-06-10T08:41:28;22.50;75.30
71879;DHT22;59755;43.834;4.364;2023-06-10T08:43:58;22.60;74.30
71879;DHT22;59755;43.834;4.364;2023-06-10T08:46:25;22.60;75.00
71879;DHT22;59755;43.834;4.364;2023-06-10T08:48:51;22.70;74.80
71879;DHT22;59755;43.834;4.364;2023-06-10T08:51:20;22.70;74.20
71879;DHT22;59755;43.834;4.364;2023-06-10T08:53:52;22.80;75.40
71879;DHT22;59755;43.834;4.364;2023-06-10T08:56:19;22.80;73.50
71879;DHT22;59755;43.834;4.364;2023-06-10T08:58:45;23.00;74.80
71879;DHT22;59755;43.834;4.364;2023-06-10T09:01:11;23.10;72.60
71879;DHT22;59755;43.834;4.364;2023-06-10T09:03:37;23.10;72.90
71879;DHT22;59755;43.834;4.364;2023-06-10T09:06:04;23.20;72.50
71879;DHT22;59755;43.834;4.364;2023-06-10T09:08:30;23.30;72.40
71879;DHT22;59755;43.834;4.364;2023-06-10T09:10:56;23.30;71.30
71879;DHT22;59755;43.834;4.364;2023-06-10T09:13:22;23.40;70.80
71879;DHT22;59755;43.834;4.364;2023-06-10T09:15:48;23.30;73.00
71879;DHT22;59755;43.834;4.364;2023-06-10T09:18:14;23.40;71.20
71879;DHT22;59755;43.834;4.364;2023-06-10T09:20:41;23.50;71.40
71879;DHT22;59755;43.834;4.364;2023-06-10T09:23:07;23.50;71.40
71879;DHT22;59755;43.834;4.364;2023-06-10T09:25:37;23.60;70.10
71879;DHT22;59755;43.834;4.364;2023-06-10T09:28:03;23.70;69.00
71879;DHT22;59755;43.834;4.364;2023-06-10T09:30:30;23.90;69.20
71879;DHT22;59755;43.834;4.364;2023-06-10T09:32:56;24.10;69.20
71879;DHT22;59755;43.834;4.364;2023-06-10T09:35:23;24.10;68.60
71879;DHT22;59755;43.834;4.364;2023-06-10T09:37:50;24.00;67.10
71879;DHT22;59755;43.834;4.364;2023-06-10T09:40:16;24.10;66.30
71879;DHT22;59755;43.834;4.364;2023-06-10T09:42:42;24.20;65.60
71879;DHT22;59755;43.834;4.364;2023-06-10T09:45:07;24.40;66.70
71879;DHT22;59755;43.834;4.364;2023-06-10T09:47:33;24.60;66.10
71879;DHT22;59755;43.834;4.364;2023-06-10T09:49:59;24.80;64.90
71879;DHT22;59755;43.834;4.364;2023-06-10T09:52:26;25.00;64.80
71879;DHT22;59755;43.834;4.364;2023-06-10T09:54:52;25.10;63.80
71879;DHT22;59755;43.834;4.364;2023-06-10T09:57:18;24.90;64.10
71879;DHT22;59755;43.834;4.364;2023-06-10T09:59:45;25.10;63.60
71879;DHT22;59755;43.834;4.364;2023-06-10T10:02:17;25.30;64.00
71879;DHT22;59755;43.834;4.364;2023-06-10T10:04:46;25.50;63.30
71879;DHT22;59755;43.834;4.364;2023-06-10T10:07:12;25.30;62.30
71879;DHT22;59755;43.834;4.364;2023-06-10T10:09:41;25.10;62.00
71879;DHT22;59755;43.834;4.364;2023-06-10T10:12:11;25.00;62.70
71879;DHT22;59755;43.834;4.364;2023-06-10T10:14:37;25.00;63.60
71879;DHT22;59755;43.834;4.364;2023-06-10T10:17:07;25.00;64.40
71879;DHT22;59755;43.834;4.364;2023-06-10T10:19:36;25.00;64.90
71879;DHT22;59755;43.834;4.364;2023-06-10T10:22:04;24.90;64.40
71879;DHT22;59755;43.834;4.364;2023-06-10T10:24:36;24.90;63.60
71879;DHT22;59755;43.834;4.364;2023-06-10T10:27:04;25.00;62.30
71879;DHT22;59755;43.834;4.364;2023-06-10T10:29:38;25.10;63.00
71879;DHT22;59755;43.834;4.364;2023-06-10T10:32:04;25.20;62.30
71879;DHT22;59755;43.834;4.364;2023-06-10T10:34:53;25.60;60.90
71879;DHT22;59755;43.834;4.364;2023-06-10T10:37:23;25.80;60.40
71879;DHT22;59755;43.834;4.364;2023-06-10T10:39:48;26.30;59.90
71879;DHT22;59755;43.834;4.364;2023-06-10T10:42:14;26.50;57.90
71879;DHT22;59755;43.834;4.364;2023-06-10T10:44:41;26.60;58.40
71879;DHT22;59755;43.834;4.364;2023-06-10T10:47:07;26.90;56.30
71879;DHT22;59755;43.834;4.364;2023-06-10T10:49:34;26.90;55.90
71879;DHT22;59755;43.834;4.364;2023-06-10T10:52:01;27.60;54.30
71879;DHT22;59755;43.834;4.364;2023-06-10T10:54:30;28.10;53.10
71879;DHT22;59755;43.834;4.364;2023-06-10T10:59:46;28.70;52.30
71879;DHT22;59755;43.834;4.364;2023-06-10T11:02:37;29.10;52.00
71879;DHT22;59755;43.834;4.364;2023-06-10T11:05:06;29.90;48.30
71879;DHT22;59755;43.834;4.364;2023-06-10T11:07:32;31.20;45.50
71879;DHT22;59755;43.834;4.364;2023-06-10T11:09:59;32.30;44.00
71879;DHT22;59755;43.834;4.364;2023-06-10T11:12:25;33.40;41.60
71879;DHT22;59755;43.834;4.364;2023-06-10T11:14:53;33.30;41.80
71879;DHT22;59755;43.834;4.364;2023-06-10T11:17:20;34.30;40.70
71879;DHT22;59755;43.834;4.364;2023-06-10T11:19:45;35.30;38.50
71879;DHT22;59755;43.834;4.364;2023-06-10T11:22:16;36.10;37.40
71879;DHT22;59755;43.834;4.364;2023-06-10T11:24:42;35.30;38.60
71879;DHT22;59755;43.834;4.364;2023-06-10T11:27:18;35.30;38.80
71879;DHT22;59755;43.834;4.364;2023-06-10T11:32:33;31.30;45.70
71879;DHT22;59755;43.834;4.364;2023-06-10T11:35:00;30.30;47.40
71879;DHT22;59755;43.834;4.364;2023-06-10T11:37:28;30.20;47.20
71879;DHT22;59755;43.834;4.364;2023-06-10T11:39:53;30.10;48.80
71879;DHT22;59755;43.834;4.364;2023-06-10T11:42:19;29.50;49.30
71879;DHT22;59755;43.834;4.364;2023-06-10T11:44:49;28.80;50.20
71879;DHT22;59755;43.834;4.364;2023-06-10T11:47:15;28.50;51.20
71879;DHT22;59755;43.834;4.364;2023-06-10T11:49:40;28.50;51.40
71879;DHT22;59755;43.834;4.364;2023-06-10T11:52:06;30.50;48.60
71879;DHT22;59755;43.834;4.364;2023-06-10T11:54:32;32.10;44.60
71879;DHT22;59755;43.834;4.364;2023-06-10T11:56:58;33.50;42.20
71879;DHT22;59755;43.834;4.364;2023-06-10T11:59:29;34.60;40.80
71879;DHT22;59755;43.834;4.364;2023-06-10T12:01:55;35.40;38.40
71879;DHT22;59755;43.834;4.364;2023-06-10T12:04:20;36.50;37.10
71879;DHT22;59755;43.834;4.364;2023-06-10T12:06:48;35.00;39.00
71879;DHT22;59755;43.834;4.364;2023-06-10T12:11:39;34.10;40.10
71879;DHT22;59755;43.834;4.364;2023-06-10T12:14:05;33.10;41.80
71879;DHT22;59755;43.834;4.364;2023-06-10T12:16:31;33.60;40.40
71879;DHT22;59755;43.834;4.364;2023-06-10T12:19:03;34.90;39.40
71879;DHT22;59755;43.834;4.364;2023-06-10T12:21:29;36.10;36.40
71879;DHT22;59755;43.834;4.364;2023-06-10T12:24:04;35.80;36.70
71879;DHT22;59755;43.834;4.364;2023-06-10T12:26:34;36.80;35.70
71879;DHT22;59755;43.834;4.364;2023-06-10T12:28:59;37.90;34.80
71879;DHT22;59755;43.834;4.364;2023-06-10T12:31:25;37.50;35.10
71879;DHT22;59755;43.834;4.364;2023-06-10T12:34:04;37.70;34.10
71879;DHT22;59755;43.834;4.364;2023-06-10T12:36:32;38.20;33.80
71879;DHT22;59755;43.834;4.364;2023-06-10T12:39:05;38.50;33.30
71879;DHT22;59755;43.834;4.364;2023-06-10T12:41:30;38.80;33.30
71879;DHT22;59755;43.834;4.364;2023-06-10T12:43:57;39.20;33.00
71879;DHT22;59755;43.834;4.364;2023-06-10T12:46:22;39.80;32.10
71879;DHT22;59755;43.834;4.364;2023-06-10T12:48:51;38.80;33.20
71879;DHT22;59755;43.834;4.364;2023-06-10T12:51:17;38.50;33.70
71879;DHT22;59755;43.834;4.364;2023-06-10T12:53:43;39.30;32.80
71879;DHT22;59755;43.834;4.364;2023-06-10T12:56:09;38.50;33.80
71879;DHT22;59755;43.834;4.364;2023-06-10T12:58:35;36.20;36.90
71879;DHT22;59755;43.834;4.364;2023-06-10T13:01:00;33.70;39.40
71879;DHT22;59755;43.834;4.364;2023-06-10T13:03:26;33.70;40.20
71879;DHT22;59755;43.834;4.364;2023-06-10T13:05:52;35.50;36.90
71879;DHT22;59755;43.834;4.364;2023-06-10T13:08:18;36.60;34.70
71879;DHT22;59755;43.834;4.364;2023-06-10T13:10:43;37.60;34.30
71879;DHT22;59755;43.834;4.364;2023-06-10T13:13:09;38.20;33.00
71879;DHT22;59755;43.834;4.364;2023-06-10T13:15:35;38.20;32.60
71879;DHT22;59755;43.834;4.364;2023-06-10T13:18:03;38.50;31.80
71879;DHT22;59755;43.834;4.364;2023-06-10T13:20:29;38.30;32.20
71879;DHT22;59755;43.834;4.364;2023-06-10T13:22:55;38.40;31.50
71879;DHT22;59755;43.834;4.364;2023-06-10T13:25:20;38.40;31.30
71879;DHT22;59755;43.834;4.364;2023-06-10T13:27:46;38.30;31.00
71879;DHT22;59755;43.834;4.364;2023-06-10T13:30:12;39.00;31.20
71879;DHT22;59755;43.834;4.364;2023-06-10T13:32:37;39.90;29.60
71879;DHT22;59755;43.834;4.364;2023-06-10T13:35:03;40.00;30.60
71879;DHT22;59755;43.834;4.364;2023-06-10T13:37:29;37.60;33.00
71879;DHT22;59755;43.834;4.364;2023-06-10T13:39:55;35.70;35.00
71879;DHT22;59755;43.834;4.364;2023-06-10T13:42:21;36.80;34.00
71879;DHT22;59755;43.834;4.364;2023-06-10T13:44:47;35.00;35.70
71879;DHT22;59755;43.834;4.364;2023-06-10T13:47:13;33.60;37.50
71879;DHT22;59755;43.834;4.364;2023-06-10T13:49:38;34.50;35.70
71879;DHT22;59755;43.834;4.364;2023-06-10T13:52:05;36.60;34.20
71879;DHT22;59755;43.834;4.364;2023-06-10T13:54:31;37.00;33.20
71879;DHT22;59755;43.834;4.364;2023-06-10T13:56:57;38.30;30.90
71879;DHT22;59755;43.834;4.364;2023-06-10T13:59:23;38.20;31.60
71879;DHT22;59755;43.834;4.364;2023-06-10T14:01:48;36.30;33.80
71879;DHT22;59755;43.834;4.364;2023-06-10T14:04:14;34.70;35.90
71879;DHT22;59755;43.834;4.364;2023-06-10T14:06:39;33.50;36.90
71879;DHT22;59755;43.834;4.364;2023-06-10T14:09:05;32.70;37.70
71879;DHT22;59755;43.834;4.364;2023-06-10T14:11:30;32.10;40.10
71879;DHT22;59755;43.834;4.364;2023-06-10T14:13:56;31.30;42.70
71879;DHT22;59755;43.834;4.364;2023-06-10T14:16:23;30.70;44.20
71879;DHT22;59755;43.834;4.364;2023-06-10T14:18:48;30.30;45.40
71879;DHT22;59755;43.834;4.364;2023-06-10T14:21:16;30.10;46.30
71879;DHT22;59755;43.834;4.364;2023-06-10T14:23:41;29.60;47.80
71879;DHT22;59755;43.834;4.364;2023-06-10T14:26:08;29.30;48.30
71879;DHT22;59755;43.834;4.364;2023-06-10T14:28:34;29.10;48.90
71879;DHT22;59755;43.834;4.364;2023-06-10T14:30:59;28.90;49.50
71879;DHT22;59755;43.834;4.364;2023-06-10T14:33:25;28.60;50.20
71879;DHT22;59755;43.834;4.364;2023-06-10T14:35:50;28.40;51.10
71879;DHT22;59755;43.834;4.364;2023-06-10T14:38:16;28.20;51.60
71879;DHT22;59755;43.834;4.364;2023-06-10T14:40:42;28.10;52.10
71879;DHT22;59755;43.834;4.364;2023-06-10T14:43:07;28.10;52.20
71879;DHT22;59755;43.834;4.364;2023-06-10T14:45:38;27.80;52.80
71879;DHT22;59755;43.834;4.364;2023-06-10T14:48:04;27.60;53.50
71879;DHT22;59755;43.834;4.364;2023-06-10T14:50:30;27.60;53.70
71879;DHT22;59755;43.834;4.364;2023-06-10T14:52:55;27.60;53.60
71879;DHT22;59755;43.834;4.364;2023-06-10T14:55:21;27.60;53.90
71879;DHT22;59755;43.834;4.364;2023-06-10T14:57:48;27.50;53.80
71879;DHT22;59755;43.834;4.364;2023-06-10T15:00:13;27.50;53.50
71879;DHT22;59755;43.834;4.364;2023-06-10T15:02:40;27.50;53.50
71879;DHT22;59755;43.834;4.364;2023-06-10T15:05:06;27.50;53.00
71879;DHT22;59755;43.834;4.364;2023-06-10T15:07:32;27.60;53.20
71879;DHT22;59755;43.834;4.364;2023-06-10T15:09:57;27.70;53.10
71879;DHT22;59755;43.834;4.364;2023-06-10T15:12:23;27.80;52.70
71879;DHT22;59755;43.834;4.364;2023-06-10T15:14:50;28.00;52.70
71879;DHT22;59755;43.834;4.364;2023-06-10T15:17:15;28.10;52.20
71879;DHT22;59755;43.834;4.364;2023-06-10T15:19:41;28.10;52.30
71879;DHT22;59755;43.834;4.364;2023-06-10T15:22:06;28.00;53.40
71879;DHT22;59755;43.834;4.364;2023-06-10T15:24:32;27.90;53.90
71879;DHT22;59755;43.834;4.364;2023-06-10T15:26:58;27.80;54.50
71879;DHT22;59755;43.834;4.364;2023-06-10T15:29:23;27.80;54.70
71879;DHT22;59755;43.834;4.364;2023-06-10T15:31:49;27.70;54.70
71879;DHT22;59755;43.834;4.364;2023-06-10T15:34:14;27.50;55.00
71879;DHT22;59755;43.834;4.364;2023-06-10T15:36:40;27.30;55.60
71879;DHT22;59755;43.834;4.364;2023-06-10T15:39:06;27.30;55.30
71879;DHT22;59755;43.834;4.364;2023-06-10T15:41:32;27.30;53.90